createdAt,value
2023-01-31T00:00:19.409Z,91.24
2023-01-31T00:01:19.656Z,91.55
2023-01-31T00:02:19.986Z,91.03
2023-01-31T00:03:20.177Z,91.55
2023-01-31T00:04:20.429Z,91.24
2023-01-31T00:05:21.058Z,91.55
2023-01-31T00:06:20.920Z,91.35
2023-01-31T00:07:21.235Z,92.07
2023-01-31T00:08:21.461Z,91.76
2023-01-31T00:09:21.721Z,91.97
2023-01-31T00:10:21.960Z,91.55
2023-01-31T00:11:22.240Z,91.66
2023-01-31T00:12:22.645Z,91.66
2023-01-31T00:13:22.749Z,91.97
2023-01-31T00:14:23.005Z,93.00
2023-01-31T00:15:23.311Z,92.90
2023-01-31T00:16:23.529Z,92.90
2023-01-31T00:17:23.812Z,93.00
2023-01-31T00:18:24.028Z,92.76
2023-01-31T00:19:24.295Z,92.65
2023-01-31T00:20:24.517Z,93.16
2023-01-31T00:21:24.776Z,92.96
2023-01-31T00:22:25.064Z,92.65
2023-01-31T00:23:25.282Z,92.34
2023-01-31T00:24:25.474Z,92.61
2023-01-31T00:25:25.723Z,92.65
2023-01-31T00:26:26.031Z,92.61
2023-01-31T00:27:26.253Z,92.96
2023-01-31T00:28:26.443Z,93.12
2023-01-31T00:29:26.692Z,94.06
2023-01-31T00:30:26.926Z,93.85
2023-01-31T00:31:27.281Z,94.89
2023-01-31T00:32:27.497Z,94.16
2023-01-31T00:33:27.680Z,94.47
2023-01-31T00:34:27.911Z,94.98
2023-01-31T00:35:28.142Z,95.29
2023-01-31T00:36:28.388Z,94.89
2023-01-31T00:37:28.788Z,94.89
2023-01-31T00:38:28.872Z,95.71
2023-01-31T00:39:29.124Z,95.09
2023-01-31T00:40:29.368Z,95.09
2023-01-31T00:41:29.622Z,95.19
2023-01-31T00:42:29.914Z,94.47
2023-01-31T00:43:30.110Z,94.89
2023-01-31T00:44:30.361Z,93.74
2023-01-31T00:45:30.605Z,95.03
2023-01-31T00:46:30.888Z,94.57
2023-01-31T00:47:31.181Z,94.41
2023-01-31T00:48:31.335Z,94.26
2023-01-31T00:49:31.584Z,94.89
2023-01-31T00:50:31.832Z,95.14
2023-01-31T00:51:32.085Z,95.19
2023-01-31T00:52:32.562Z,94.47
2023-01-31T00:53:32.588Z,94.10
2023-01-31T00:54:32.829Z,94.93
2023-01-31T00:55:33.065Z,94.26
2023-01-31T00:56:33.814Z,93.89
2023-01-31T00:57:34.000Z,93.99
2023-01-31T00:58:34.012Z,93.93
2023-01-31T00:59:34.328Z,94.04
2023-01-31T01:00:35.001Z,94.14
2023-01-31T01:01:35.204Z,94.14
2023-01-31T01:02:35.704Z,94.35
2023-01-31T01:03:35.411Z,94.14
2023-01-31T01:04:35.508Z,94.08
2023-01-31T01:05:35.962Z,93.98
2023-01-31T01:06:36.459Z,93.77
2023-01-31T01:07:36.630Z,94.29
2023-01-31T01:08:36.428Z,94.81
2023-01-31T01:09:36.592Z,94.18
2023-01-31T01:10:36.847Z,94.49
2023-01-31T01:11:37.102Z,95.12
2023-01-31T01:12:37.404Z,94.60
2023-01-31T01:13:37.629Z,95.26
2023-01-31T01:14:37.881Z,95.06
2023-01-31T01:15:38.141Z,95.37
2023-01-31T01:16:38.655Z,95.37
2023-01-31T01:17:38.700Z,96.30
2023-01-31T01:18:38.935Z,96.20
2023-01-31T01:19:39.313Z,96.09
2023-01-31T01:20:39.441Z,96.72
2023-01-31T01:21:39.711Z,96.51
2023-01-31T01:22:39.956Z,96.78
2023-01-31T01:23:40.198Z,96.78
2023-01-31T01:24:40.491Z,97.29
2023-01-31T01:25:40.679Z,97.19
2023-01-31T01:26:41.098Z,97.09
2023-01-31T01:27:41.194Z,96.47
2023-01-31T01:28:41.438Z,96.98
2023-01-31T01:29:41.673Z,96.67
2023-01-31T01:30:41.917Z,96.88
2023-01-31T01:31:42.441Z,97.19
2023-01-31T01:32:42.450Z,96.98
2023-01-31T01:33:42.675Z,97.09
2023-01-31T01:34:42.917Z,97.19
2023-01-31T01:35:43.177Z,96.88
2023-01-31T01:36:45.538Z,96.51
2023-01-31T01:37:43.700Z,97.03
2023-01-31T01:38:43.912Z,97.39
2023-01-31T01:39:44.248Z,96.61
2023-01-31T01:40:44.399Z,97.19
2023-01-31T01:41:44.766Z,96.72
2023-01-31T01:42:44.908Z,96.41
2023-01-31T01:43:45.162Z,96.41
2023-01-31T01:44:45.382Z,97.13
2023-01-31T01:45:45.707Z,97.24
2023-01-31T01:46:45.888Z,96.92
2023-01-31T01:47:46.092Z,96.72
2023-01-31T01:48:46.330Z,97.34
2023-01-31T01:49:46.622Z,97.34
2023-01-31T01:50:46.841Z,96.72
2023-01-31T01:51:47.076Z,96.82
2023-01-31T01:52:47.344Z,97.07
2023-01-31T01:53:47.603Z,96.86
2023-01-31T01:54:47.815Z,96.97
2023-01-31T01:55:48.048Z,97.13
2023-01-31T01:56:48.288Z,97.44
2023-01-31T01:57:48.534Z,97.28
2023-01-31T01:58:48.886Z,97.49
2023-01-31T01:59:49.015Z,97.69
2023-01-31T02:00:49.311Z,97.49
2023-01-31T02:01:49.584Z,97.90
2023-01-31T02:02:49.782Z,97.49
2023-01-31T02:03:50.113Z,97.80
2023-01-31T02:04:50.282Z,97.96
2023-01-31T02:05:50.545Z,97.75
2023-01-31T02:06:50.769Z,98.17
2023-01-31T02:07:51.039Z,98.17
2023-01-31T02:08:51.280Z,98.07
2023-01-31T02:09:51.491Z,98.69
2023-01-31T02:10:51.729Z,98.69
2023-01-31T02:11:52.001Z,98.54
2023-01-31T02:12:52.227Z,98.74
2023-01-31T02:13:52.481Z,98.43
2023-01-31T02:14:52.721Z,98.02
2023-01-31T02:15:52.971Z,98.12
2023-01-31T02:16:53.261Z,98.02
2023-01-31T02:17:53.438Z,98.33
2023-01-31T02:18:53.757Z,98.54
2023-01-31T02:19:53.894Z,98.02
2023-01-31T02:20:54.108Z,98.22
2023-01-31T02:21:54.317Z,98.80
2023-01-31T02:22:54.577Z,98.70
2023-01-31T02:23:54.787Z,98.74
2023-01-31T02:24:54.966Z,98.80
2023-01-31T02:25:55.200Z,98.39
2023-01-31T02:26:55.429Z,98.49
2023-01-31T02:27:55.623Z,98.39
2023-01-31T02:28:55.908Z,98.28
2023-01-31T02:29:56.083Z,98.60
2023-01-31T02:30:56.345Z,98.49
2023-01-31T02:31:56.588Z,98.80
2023-01-31T02:32:56.763Z,98.70
2023-01-31T02:33:57.011Z,98.60
2023-01-31T02:34:57.201Z,98.70
2023-01-31T02:35:57.420Z,97.77
2023-01-31T02:36:57.639Z,98.39
2023-01-31T02:37:57.882Z,98.49
2023-01-31T02:38:58.105Z,98.70
2023-01-31T02:39:58.287Z,98.70
2023-01-31T02:40:58.510Z,98.65
2023-01-31T02:41:58.714Z,98.80
2023-01-31T02:42:58.919Z,98.70
2023-01-31T02:43:59.230Z,98.60
2023-01-31T02:44:59.357Z,98.49
2023-01-31T02:45:59.577Z,98.65
2023-01-31T02:46:59.754Z,98.13
2023-01-31T02:47:59.962Z,98.24
2023-01-31T02:49:00.211Z,98.44
2023-01-31T02:50:01.108Z,98.44
2023-01-31T02:51:00.610Z,98.44
2023-01-31T02:52:00.810Z,98.65
2023-01-31T02:53:01.039Z,98.34
2023-01-31T02:54:01.235Z,98.34
2023-01-31T02:55:01.569Z,98.55
2023-01-31T02:56:01.668Z,98.96
2023-01-31T02:57:01.875Z,99.07
2023-01-31T02:58:02.089Z,98.96
2023-01-31T02:59:02.303Z,99.07
2023-01-31T03:00:02.529Z,98.86
2023-01-31T03:01:02.798Z,98.86
2023-01-31T03:02:03.013Z,98.86
2023-01-31T03:03:03.132Z,99.07
2023-01-31T03:04:03.321Z,98.86
2023-01-31T03:05:03.582Z,98.65
2023-01-31T03:06:03.883Z,98.75
2023-01-31T03:07:03.941Z,98.96
2023-01-31T03:08:04.185Z,98.96
2023-01-31T03:09:04.399Z,98.75
2023-01-31T03:10:04.585Z,99.27
2023-01-31T03:11:04.827Z,98.96
2023-01-31T03:12:04.999Z,98.80
2023-01-31T03:13:05.243Z,99.27
2023-01-31T03:14:05.410Z,99.48
2023-01-31T03:15:05.607Z,99.11
2023-01-31T03:16:05.828Z,99.27
2023-01-31T03:17:06.035Z,99.32
2023-01-31T03:18:06.285Z,99.52
2023-01-31T03:19:06.449Z,99.43
2023-01-31T03:20:06.680Z,99.84
2023-01-31T03:21:06.922Z,99.90
2023-01-31T03:22:07.162Z,99.73
2023-01-31T03:23:07.458Z,99.52
2023-01-31T03:24:07.637Z,99.73
2023-01-31T03:25:07.864Z,99.52
2023-01-31T03:26:08.110Z,99.52
2023-01-31T03:27:08.331Z,98.70
2023-01-31T03:28:08.605Z,99.22
2023-01-31T03:29:08.825Z,99.01
2023-01-31T03:30:09.079Z,99.11
2023-01-31T03:31:09.479Z,98.60
2023-01-31T03:32:09.583Z,99.11
2023-01-31T03:33:09.864Z,98.91
2023-01-31T03:34:10.073Z,98.91
2023-01-31T03:35:10.310Z,99.32
2023-01-31T03:36:10.558Z,99.43
2023-01-31T03:37:10.787Z,99.52
2023-01-31T03:38:11.114Z,98.49
2023-01-31T03:39:11.284Z,99.22
2023-01-31T03:40:11.531Z,98.70
2023-01-31T03:41:11.736Z,98.91
2023-01-31T03:42:11.959Z,98.91
2023-01-31T03:43:12.169Z,98.91
2023-01-31T03:44:12.405Z,98.18
2023-01-31T03:45:12.697Z,98.60
2023-01-31T03:46:12.895Z,98.80
2023-01-31T03:47:13.013Z,98.49
2023-01-31T03:48:13.224Z,98.60
2023-01-31T03:49:14.015Z,98.74
2023-01-31T03:50:14.200Z,98.70
2023-01-31T03:51:13.946Z,99.11
2023-01-31T03:52:14.091Z,98.64
2023-01-31T03:53:14.961Z,98.85
2023-01-31T03:54:14.858Z,98.85
2023-01-31T03:55:14.754Z,98.85
2023-01-31T03:56:14.924Z,98.85
2023-01-31T03:57:15.544Z,98.85
2023-01-31T03:58:15.423Z,99.05
2023-01-31T03:59:15.601Z,99.05
2023-01-31T04:00:15.758Z,99.16
2023-01-31T04:01:16.309Z,99.05
2023-01-31T04:02:16.295Z,98.74
2023-01-31T04:03:16.400Z,99.88
2023-01-31T04:04:16.890Z,99.99
2023-01-31T04:05:16.884Z,99.99
2023-01-31T04:06:17.111Z,99.93
2023-01-31T04:07:17.308Z,99.99
2023-01-31T04:08:17.568Z,99.99
2023-01-31T04:09:17.809Z,99.72
2023-01-31T04:10:18.064Z,99.99
2023-01-31T04:11:18.251Z,99.99
2023-01-31T04:12:18.487Z,99.99
2023-01-31T04:13:18.726Z,99.99
2023-01-31T04:14:18.949Z,99.99
2023-01-31T04:15:19.484Z,99.99
2023-01-31T04:16:19.655Z,99.99
2023-01-31T04:17:19.679Z,99.99
2023-01-31T04:18:19.917Z,99.99
2023-01-31T04:19:20.169Z,99.99
2023-01-31T04:20:20.401Z,99.99
2023-01-31T04:21:20.672Z,99.93
2023-01-31T04:22:20.938Z,99.99
2023-01-31T04:23:21.168Z,99.99
2023-01-31T04:24:21.392Z,99.99
2023-01-31T04:25:22.120Z,99.99
2023-01-31T04:26:21.897Z,99.99
2023-01-31T04:27:22.160Z,99.99
2023-01-31T04:28:22.361Z,99.99
2023-01-31T04:29:22.601Z,99.99
2023-01-31T04:30:22.839Z,99.99
2023-01-31T04:31:23.194Z,99.99
2023-01-31T04:32:23.357Z,99.52
2023-01-31T04:33:23.579Z,99.99
2023-01-31T04:34:23.834Z,99.78
2023-01-31T04:35:24.070Z,99.88
2023-01-31T04:36:24.321Z,99.99
2023-01-31T04:37:24.610Z,99.78
2023-01-31T04:38:24.859Z,99.57
2023-01-31T04:39:25.139Z,99.10
2023-01-31T04:40:25.373Z,99.21
2023-01-31T04:41:25.686Z,99.41
2023-01-31T04:42:25.872Z,98.69
2023-01-31T04:43:26.136Z,99.31
2023-01-31T04:44:26.382Z,99.31
2023-01-31T04:45:26.669Z,98.69
2023-01-31T04:46:27.222Z,99.41
2023-01-31T04:47:27.137Z,99.31
2023-01-31T04:48:29.013Z,99.41
2023-01-31T04:49:27.625Z,99.00
2023-01-31T04:50:27.858Z,99.41
2023-01-31T04:51:28.276Z,99.21
2023-01-31T04:52:28.341Z,99.00
2023-01-31T04:53:28.614Z,98.79
2023-01-31T04:54:28.848Z,99.31
2023-01-31T04:55:29.080Z,99.05
2023-01-31T04:56:29.433Z,99.26
2023-01-31T04:57:29.533Z,99.47
2023-01-31T04:58:29.749Z,99.16
2023-01-31T04:59:29.965Z,98.79
2023-01-31T05:00:30.215Z,98.69
2023-01-31T05:01:30.429Z,98.95
2023-01-31T05:02:30.697Z,98.95
2023-01-31T05:03:30.832Z,98.95
2023-01-31T05:04:31.570Z,99.00
2023-01-31T05:05:31.594Z,98.95
2023-01-31T05:06:31.596Z,98.90
2023-01-31T05:07:31.692Z,98.74
2023-01-31T05:08:31.976Z,98.79
2023-01-31T05:09:32.759Z,99.47
2023-01-31T05:10:32.692Z,98.85
2023-01-31T05:11:32.724Z,99.52
2023-01-31T05:12:32.846Z,99.47
2023-01-31T05:13:33.348Z,98.74
2023-01-31T05:14:33.316Z,98.95
2023-01-31T05:15:33.568Z,98.85
2023-01-31T05:16:33.806Z,98.74
2023-01-31T05:17:33.987Z,98.85
2023-01-31T05:18:34.216Z,98.64
2023-01-31T05:19:34.480Z,98.95
2023-01-31T05:20:34.755Z,98.74
2023-01-31T05:21:34.977Z,99.37
2023-01-31T05:22:35.242Z,99.16
2023-01-31T05:23:35.485Z,99.26
2023-01-31T05:24:35.975Z,99.16
2023-01-31T05:25:36.138Z,98.95
2023-01-31T05:26:36.240Z,98.64
2023-01-31T05:27:36.424Z,98.49
2023-01-31T05:28:36.693Z,98.43
2023-01-31T05:29:37.062Z,98.49
2023-01-31T05:30:37.296Z,98.64
2023-01-31T05:31:37.493Z,98.60
2023-01-31T05:32:37.700Z,98.60
2023-01-31T05:33:37.961Z,98.60
2023-01-31T05:34:38.216Z,98.60
2023-01-31T05:35:38.471Z,98.80
2023-01-31T05:36:38.756Z,97.77
2023-01-31T05:37:38.980Z,98.28
2023-01-31T05:38:39.261Z,97.97
2023-01-31T05:39:39.510Z,97.66
2023-01-31T05:40:39.773Z,97.77
2023-01-31T05:41:40.075Z,97.77
2023-01-31T05:42:40.305Z,97.97
2023-01-31T05:43:40.560Z,97.97
2023-01-31T05:44:40.800Z,97.97
2023-01-31T05:45:41.165Z,98.08
2023-01-31T05:46:41.338Z,97.97
2023-01-31T05:47:41.557Z,97.97
2023-01-31T05:48:41.796Z,97.97
2023-01-31T05:49:42.045Z,97.87
2023-01-31T05:50:42.293Z,97.77
2023-01-31T05:51:42.607Z,97.56
2023-01-31T05:52:42.789Z,97.87
2023-01-31T05:53:43.063Z,97.77
2023-01-31T05:54:43.277Z,97.66
2023-01-31T05:55:43.524Z,97.35
2023-01-31T05:56:43.826Z,97.56
2023-01-31T05:57:44.037Z,97.25
2023-01-31T05:58:44.289Z,97.14
2023-01-31T05:59:44.535Z,97.97
2023-01-31T06:00:44.783Z,97.45
2023-01-31T06:01:45.134Z,97.87
2023-01-31T06:02:45.255Z,98.08
2023-01-31T06:03:45.519Z,97.87
2023-01-31T06:04:45.715Z,97.56
2023-01-31T06:05:45.925Z,97.66
2023-01-31T06:06:46.151Z,97.72
2023-01-31T06:07:46.368Z,97.56
2023-01-31T06:08:46.659Z,97.31
2023-01-31T06:09:46.811Z,97.87
2023-01-31T06:10:47.071Z,97.35
2023-01-31T06:11:47.276Z,97.52
2023-01-31T06:12:47.481Z,97.66
2023-01-31T06:13:47.991Z,97.45
2023-01-31T06:14:48.106Z,97.66
2023-01-31T06:15:48.209Z,97.20
2023-01-31T06:16:48.548Z,97.45
2023-01-31T06:17:48.703Z,97.66
2023-01-31T06:18:48.960Z,97.52
2023-01-31T06:19:49.362Z,97.72
2023-01-31T06:20:49.480Z,97.52
2023-01-31T06:21:49.708Z,97.72
2023-01-31T06:22:49.972Z,97.35
2023-01-31T06:23:50.285Z,97.52
2023-01-31T06:24:50.647Z,97.20
2023-01-31T06:25:50.737Z,97.31
2023-01-31T06:26:51.028Z,97.52
2023-01-31T06:27:51.251Z,97.31
2023-01-31T06:28:51.488Z,97.41
2023-01-31T06:29:51.766Z,97.41
2023-01-31T06:30:52.087Z,97.31
2023-01-31T06:31:52.279Z,97.41
2023-01-31T06:32:52.558Z,97.10
2023-01-31T06:33:52.759Z,97.41
2023-01-31T06:34:53.015Z,97.62
2023-01-31T06:35:53.271Z,97.62
2023-01-31T06:36:53.542Z,97.31
2023-01-31T06:37:53.893Z,97.31
2023-01-31T06:38:54.089Z,97.20
2023-01-31T06:39:54.296Z,97.31
2023-01-31T06:40:54.527Z,97.72
2023-01-31T06:41:55.557Z,97.41
2023-01-31T06:42:55.352Z,97.41
2023-01-31T06:43:55.340Z,97.20
2023-01-31T06:44:55.507Z,97.36
2023-01-31T06:45:56.267Z,97.52
2023-01-31T06:46:56.187Z,97.41
2023-01-31T06:47:56.294Z,97.31
2023-01-31T06:48:57.167Z,97.62
2023-01-31T06:49:56.973Z,97.31
2023-01-31T06:50:57.010Z,97.72
2023-01-31T06:51:57.200Z,97.16
2023-01-31T06:52:57.423Z,97.47
2023-01-31T06:53:57.674Z,97.16
2023-01-31T06:54:57.983Z,97.72
2023-01-31T06:55:58.142Z,97.62
2023-01-31T06:56:58.631Z,97.67
2023-01-31T06:57:58.567Z,97.72
2023-01-31T06:58:58.776Z,97.72
2023-01-31T06:59:58.988Z,97.99
2023-01-31T07:00:59.233Z,97.88
2023-01-31T07:01:59.437Z,97.99
2023-01-31T07:02:59.628Z,97.93
2023-01-31T07:04:00.146Z,97.99
2023-01-31T07:05:00.210Z,97.99
2023-01-31T07:06:00.307Z,97.67
2023-01-31T07:07:00.552Z,97.99
2023-01-31T07:08:00.784Z,97.78
2023-01-31T07:09:01.080Z,97.67
2023-01-31T07:10:01.281Z,97.67
2023-01-31T07:11:01.500Z,97.67
2023-01-31T07:12:01.730Z,97.78
2023-01-31T07:13:01.975Z,97.88
2023-01-31T07:14:02.200Z,98.09
2023-01-31T07:15:02.412Z,97.99
2023-01-31T07:16:02.630Z,97.99
2023-01-31T07:17:02.808Z,97.88
2023-01-31T07:18:03.031Z,97.67
2023-01-31T07:19:03.262Z,98.30
2023-01-31T07:20:03.431Z,98.19
2023-01-31T07:21:03.653Z,98.50
2023-01-31T07:22:03.897Z,98.40
2023-01-31T07:23:04.111Z,98.61
2023-01-31T07:24:04.383Z,98.40
2023-01-31T07:25:04.557Z,98.40
2023-01-31T07:26:04.785Z,98.50
2023-01-31T07:27:05.076Z,98.50
2023-01-31T07:28:05.267Z,98.92
2023-01-31T07:29:05.511Z,98.92
2023-01-31T07:30:05.750Z,98.71
2023-01-31T07:31:06.078Z,98.71
2023-01-31T07:32:06.245Z,98.71
2023-01-31T07:33:06.474Z,98.56
2023-01-31T07:34:06.743Z,98.66
2023-01-31T07:35:06.942Z,98.66
2023-01-31T07:36:07.186Z,98.92
2023-01-31T07:37:07.426Z,98.61
2023-01-31T07:38:09.827Z,98.82
2023-01-31T07:39:07.919Z,99.13
2023-01-31T07:40:08.173Z,98.46
2023-01-31T07:41:08.345Z,98.50
2023-01-31T07:42:08.563Z,98.87
2023-01-31T07:43:08.808Z,99.29
2023-01-31T07:44:08.979Z,99.60
2023-01-31T07:45:22.538Z,99.54
2023-01-31T07:46:09.538Z,99.49
2023-01-31T07:47:09.627Z,99.91
2023-01-31T07:48:09.873Z,99.99
2023-01-31T07:49:10.077Z,99.49
2023-01-31T07:50:10.286Z,99.60
2023-01-31T07:51:10.472Z,99.91
2023-01-31T07:52:10.693Z,99.55
2023-01-31T07:53:10.898Z,99.80
2023-01-31T07:54:11.173Z,99.96
2023-01-31T07:55:11.317Z,99.49
2023-01-31T07:56:11.536Z,99.65
2023-01-31T07:57:11.797Z,99.49
2023-01-31T07:58:12.039Z,99.70
2023-01-31T07:59:12.226Z,99.44
2023-01-31T08:00:12.487Z,99.34
2023-01-31T08:01:12.692Z,99.76
2023-01-31T08:02:12.874Z,99.55
2023-01-31T08:03:13.076Z,99.24
2023-01-31T08:04:21.134Z,99.24
2023-01-31T08:05:13.554Z,99.24
2023-01-31T08:06:13.710Z,98.93
2023-01-31T08:07:13.916Z,98.93
2023-01-31T08:08:14.259Z,98.46
2023-01-31T08:09:14.352Z,98.41
2023-01-31T08:10:14.581Z,98.83
2023-01-31T08:11:14.753Z,98.72
2023-01-31T08:12:14.951Z,99.24
2023-01-31T08:13:15.167Z,98.72
2023-01-31T08:14:15.395Z,98.62
2023-01-31T08:15:15.652Z,99.04
2023-01-31T08:16:15.818Z,99.04
2023-01-31T08:17:16.060Z,98.72
2023-01-31T08:18:16.289Z,98.41
2023-01-31T08:19:16.528Z,98.72
2023-01-31T08:20:16.793Z,98.41
2023-01-31T08:24:05.883Z,98.31
2023-01-31T08:25:05.984Z,98.27
2023-01-31T08:28:17.180Z,98.57
2023-01-31T08:29:17.331Z,98.57
2023-01-31T08:30:17.596Z,98.37
2023-01-31T08:31:17.792Z,98.47
2023-01-31T08:32:17.921Z,98.27
2023-01-31T08:33:18.123Z,98.37
2023-01-31T08:34:18.296Z,98.16
2023-01-31T08:35:18.809Z,97.75
2023-01-31T08:36:18.698Z,97.75
2023-01-31T08:37:18.944Z,97.96
2023-01-31T08:38:19.198Z,97.75
2023-01-31T08:39:19.323Z,97.44
2023-01-31T08:40:19.536Z,96.98
2023-01-31T08:41:19.715Z,97.64
2023-01-31T08:42:19.898Z,97.64
2023-01-31T08:43:20.100Z,97.54
2023-01-31T08:44:20.313Z,97.29
2023-01-31T08:45:20.836Z,97.64
2023-01-31T08:46:20.723Z,97.96
2023-01-31T08:47:20.880Z,97.39
2023-01-31T08:48:21.086Z,97.75
2023-01-31T08:49:21.329Z,98.37
2023-01-31T08:50:27.699Z,98.53
2023-01-31T08:51:21.697Z,98.16
2023-01-31T08:52:21.883Z,98.68
2023-01-31T08:53:22.085Z,98.68
2023-01-31T08:54:22.411Z,98.88
2023-01-31T08:55:22.694Z,99.40
2023-01-31T08:56:22.713Z,99.25
2023-01-31T08:57:22.960Z,99.40
2023-01-31T08:58:23.170Z,99.61
2023-01-31T08:59:23.423Z,99.56
2023-01-31T09:00:23.763Z,99.92
2023-01-31T09:01:23.885Z,99.92
2023-01-31T09:02:24.130Z,99.99
2023-01-31T09:03:24.266Z,99.99
2023-01-31T09:04:24.508Z,99.99
2023-01-31T09:05:24.657Z,99.99
2023-01-31T09:06:24.879Z,99.99
2023-01-31T09:07:25.091Z,99.99
2023-01-31T09:08:25.312Z,99.99
2023-01-31T09:09:25.684Z,99.99
2023-01-31T09:10:25.807Z,99.99
2023-01-31T09:11:25.998Z,99.99
2023-01-31T09:12:26.220Z,99.99
2023-01-31T09:13:26.447Z,99.99
2023-01-31T09:14:26.707Z,99.99
2023-01-31T09:15:26.920Z,99.99
2023-01-31T09:16:27.139Z,99.99
2023-01-31T09:17:27.323Z,99.99
2023-01-31T09:18:27.517Z,99.99
2023-01-31T09:19:27.722Z,99.99
2023-01-31T09:20:27.976Z,99.99
2023-01-31T09:21:28.658Z,99.99
2023-01-31T09:22:28.647Z,99.99
2023-01-31T09:23:28.577Z,99.99
2023-01-31T09:24:28.769Z,99.99
2023-01-31T09:25:43.031Z,99.99
2023-01-31T09:26:29.772Z,99.99
2023-01-31T09:27:29.764Z,99.99
2023-01-31T09:28:30.003Z,99.99
2023-01-31T09:29:29.919Z,99.99
2023-01-31T09:30:30.160Z,99.99
2023-01-31T09:31:30.524Z,99.99
2023-01-31T09:32:30.872Z,99.99
2023-01-31T09:33:31.020Z,99.99
2023-01-31T09:34:30.962Z,99.99
2023-01-31T09:35:31.156Z,99.99
2023-01-31T09:36:31.975Z,99.99
2023-01-31T09:37:32.132Z,99.99
2023-01-31T09:38:31.836Z,99.99
2023-01-31T09:39:32.066Z,99.99
2023-01-31T09:40:32.281Z,99.99
2023-01-31T09:41:32.472Z,99.99
2023-01-31T09:42:33.066Z,99.99
2023-01-31T09:43:33.492Z,99.99
2023-01-31T09:44:33.295Z,99.99
2023-01-31T09:45:33.412Z,99.99
2023-01-31T09:46:33.626Z,99.99
2023-01-31T09:47:33.809Z,99.99
2023-01-31T09:48:34.252Z,99.99
2023-01-31T09:49:34.253Z,99.99
2023-01-31T09:50:34.484Z,99.99
2023-01-31T09:51:34.704Z,99.99
2023-01-31T09:52:34.967Z,99.99
2023-01-31T09:53:35.162Z,99.99
2023-01-31T09:54:35.354Z,99.99
2023-01-31T09:55:36.093Z,99.99
2023-01-31T09:56:35.795Z,99.99
2023-01-31T09:57:36.038Z,99.99
2023-01-31T09:58:36.224Z,99.99
2023-01-31T09:59:36.953Z,99.99
2023-01-31T10:00:37.204Z,99.99
2023-01-31T10:01:36.848Z,99.99
2023-01-31T10:02:37.108Z,99.99
2023-01-31T10:03:37.300Z,99.99
2023-01-31T10:04:37.493Z,99.99
2023-01-31T10:05:37.711Z,99.99
2023-01-31T10:06:37.932Z,99.99
2023-01-31T10:07:38.189Z,99.99
2023-01-31T10:08:38.363Z,99.99
2023-01-31T10:09:38.581Z,99.99
2023-01-31T10:10:38.840Z,99.99
2023-01-31T10:11:39.033Z,99.99
2023-01-31T10:12:39.555Z,99.99
2023-01-31T10:13:39.467Z,99.99
2023-01-31T10:14:39.721Z,99.99
2023-01-31T10:15:39.910Z,99.99
2023-01-31T10:16:40.127Z,99.99
2023-01-31T10:17:40.437Z,99.99
2023-01-31T10:18:40.538Z,99.99
2023-01-31T10:19:40.806Z,99.99
2023-01-31T10:20:40.972Z,99.99
2023-01-31T10:21:41.295Z,99.99
2023-01-31T10:22:41.553Z,99.99
2023-01-31T10:23:41.670Z,99.99
2023-01-31T10:24:41.836Z,99.99
2023-01-31T10:25:42.108Z,99.99
2023-01-31T10:26:42.386Z,99.99
2023-01-31T10:27:42.607Z,99.99
2023-01-31T10:28:42.652Z,99.99
2023-01-31T10:29:42.840Z,99.99
2023-01-31T10:30:43.073Z,99.99
2023-01-31T10:31:44.271Z,99.99
2023-01-31T10:32:43.517Z,99.99
2023-01-31T10:33:43.790Z,99.99
2023-01-31T10:34:43.915Z,99.99
2023-01-31T10:35:44.130Z,99.99
2023-01-31T10:36:44.336Z,99.99
2023-01-31T10:37:45.475Z,99.99
2023-01-31T10:38:44.802Z,99.99
2023-01-31T10:39:44.971Z,99.99
2023-01-31T10:40:45.211Z,99.99
2023-01-31T10:41:45.387Z,99.99
2023-01-31T10:42:45.605Z,99.99
2023-01-31T10:43:45.850Z,99.99
2023-01-31T10:44:46.007Z,99.99
2023-01-31T10:45:46.272Z,99.99
2023-01-31T10:46:46.420Z,99.99
2023-01-31T10:47:46.637Z,99.99
2023-01-31T10:48:48.135Z,99.99
2023-01-31T10:49:47.449Z,99.99
2023-01-31T10:50:47.447Z,99.99
2023-01-31T10:51:47.488Z,99.99
2023-01-31T10:52:49.756Z,99.99
2023-01-31T10:53:48.484Z,99.99
2023-01-31T10:54:48.504Z,99.99
2023-01-31T10:55:48.377Z,99.99
2023-01-31T10:56:48.521Z,99.99
2023-01-31T10:57:48.724Z,99.99
2023-01-31T10:58:48.998Z,99.99
2023-01-31T10:59:49.191Z,99.99
2023-01-31T11:00:49.542Z,99.99
2023-01-31T11:01:49.526Z,99.99
2023-01-31T11:02:49.704Z,99.99
2023-01-31T11:03:49.948Z,99.99
2023-01-31T11:04:50.090Z,99.99
2023-01-31T11:05:50.293Z,99.99
2023-01-31T11:06:50.473Z,99.99
2023-01-31T11:07:50.680Z,99.99
2023-01-31T11:08:50.914Z,99.99
2023-01-31T11:09:51.048Z,99.99
2023-01-31T11:10:51.266Z,99.99
2023-01-31T11:11:51.420Z,99.99
2023-01-31T11:12:51.608Z,99.99
2023-01-31T11:13:51.828Z,99.99
2023-01-31T11:14:53.938Z,99.99
2023-01-31T11:15:52.144Z,99.99
2023-01-31T11:16:52.376Z,99.99
2023-01-31T11:17:52.480Z,99.99
2023-01-31T11:18:52.648Z,99.99
2023-01-31T11:19:52.929Z,99.99
2023-01-31T11:20:53.014Z,99.99
2023-01-31T11:21:53.501Z,99.99
2023-01-31T11:22:53.439Z,99.99
2023-01-31T11:23:53.543Z,99.99
2023-01-31T11:24:53.736Z,99.99
2023-01-31T11:25:53.897Z,99.99
2023-01-31T11:26:54.025Z,99.99
2023-01-31T11:27:54.286Z,99.99
2023-01-31T11:28:54.393Z,99.99
2023-01-31T11:29:54.631Z,99.99
2023-01-31T11:30:54.829Z,99.99
2023-01-31T11:31:54.992Z,99.99
2023-01-31T11:32:55.110Z,99.99
2023-01-31T11:33:55.293Z,99.99
2023-01-31T11:34:55.487Z,99.99
2023-01-31T11:35:55.639Z,99.99
2023-01-31T11:36:55.858Z,99.99
2023-01-31T11:37:55.968Z,99.99
2023-01-31T11:38:56.117Z,99.99
2023-01-31T11:39:56.529Z,99.99
2023-01-31T11:40:56.479Z,99.99
2023-01-31T11:41:56.766Z,99.99
2023-01-31T11:42:57.076Z,99.99
2023-01-31T11:43:57.003Z,99.99
2023-01-31T11:44:57.201Z,99.99
2023-01-31T11:45:57.382Z,99.99
2023-01-31T11:46:57.530Z,99.99
2023-01-31T11:47:57.761Z,99.99
2023-01-31T11:48:57.953Z,99.99
2023-01-31T11:49:58.093Z,99.99
2023-01-31T11:50:58.370Z,99.99
2023-01-31T11:51:58.533Z,99.99
2023-01-31T11:52:58.740Z,99.99
2023-01-31T11:53:58.891Z,99.99
2023-01-31T11:54:59.042Z,99.99
2023-01-31T11:55:59.631Z,99.99
2023-01-31T11:56:59.449Z,99.99
2023-01-31T11:57:59.636Z,99.99
2023-01-31T11:58:59.773Z,99.99
2023-01-31T12:00:00.073Z,99.99
2023-01-31T12:01:00.176Z,99.99
2023-01-31T12:02:00.513Z,99.99
2023-01-31T12:03:00.499Z,99.99
2023-01-31T12:04:04.143Z,99.99
2023-01-31T12:05:00.837Z,99.99
2023-01-31T12:06:01.021Z,99.99
2023-01-31T12:07:01.279Z,99.99
2023-01-31T12:08:01.387Z,99.99
2023-01-31T12:09:01.619Z,99.99
2023-01-31T12:10:01.730Z,99.99
2023-01-31T12:11:01.898Z,99.99
2023-01-31T12:12:02.092Z,99.99
2023-01-31T12:13:17.489Z,99.99
2023-01-31T12:14:02.769Z,99.99
2023-01-31T12:15:02.589Z,99.99
2023-01-31T12:16:02.754Z,99.99
2023-01-31T12:17:02.956Z,99.99
2023-01-31T12:18:03.074Z,99.99
2023-01-31T12:19:03.348Z,99.99
2023-01-31T12:20:07.205Z,99.99
2023-01-31T12:21:03.710Z,99.99
2023-01-31T12:22:03.750Z,99.99
2023-01-31T12:23:03.928Z,99.99
2023-01-31T12:24:04.103Z,99.99
2023-01-31T12:25:04.276Z,99.99
2023-01-31T12:26:04.597Z,99.99
2023-01-31T12:27:04.714Z,99.99
2023-01-31T12:28:04.892Z,99.99
2023-01-31T12:29:05.108Z,99.99
2023-01-31T12:30:05.377Z,99.99
2023-01-31T12:31:05.771Z,99.99
2023-01-31T12:32:05.699Z,99.99
2023-01-31T12:33:05.906Z,99.99
2023-01-31T12:34:06.103Z,99.99
2023-01-31T12:35:09.623Z,99.99
2023-01-31T12:36:06.511Z,99.99
2023-01-31T12:37:06.822Z,99.99
2023-01-31T12:38:06.934Z,99.99
2023-01-31T12:39:07.149Z,99.99
2023-01-31T12:40:23.926Z,99.99
2023-01-31T12:41:07.553Z,99.99
2023-01-31T12:42:07.739Z,99.99
2023-01-31T12:43:07.883Z,99.99
2023-01-31T12:44:08.058Z,99.99
2023-01-31T12:45:08.254Z,99.99
2023-01-31T12:46:08.537Z,99.99
2023-01-31T12:47:11.297Z,99.99
2023-01-31T12:48:08.732Z,99.99
2023-01-31T12:49:08.893Z,99.99
2023-01-31T12:50:09.064Z,99.99
2023-01-31T12:51:09.310Z,99.99
2023-01-31T12:52:09.439Z,99.99
2023-01-31T12:53:09.590Z,99.99
2023-01-31T12:54:09.778Z,99.99
2023-01-31T12:55:09.947Z,99.99
2023-01-31T12:56:10.171Z,99.99
2023-01-31T12:57:10.288Z,99.99
2023-01-31T12:58:10.486Z,99.99
2023-01-31T12:59:16.421Z,99.99
2023-01-31T13:00:10.836Z,99.99